createdAt,value
2022-09-06T00:01:11.967Z,2.63
2022-09-06T00:03:40.131Z,2.50
2022-09-06T00:06:12.791Z,1.73
2022-09-06T00:08:40.516Z,2.33
2022-09-06T00:11:08.528Z,2.17
2022-09-06T00:13:36.316Z,2.40
2022-09-06T00:16:09.441Z,2.00
2022-09-06T00:18:38.439Z,2.37
2022-09-06T00:21:13.322Z,2.63
2022-09-06T00:23:40.891Z,2.43
2022-09-06T00:26:08.496Z,2.80
2022-09-06T00:28:36.074Z,2.57
2022-09-06T00:31:09.623Z,2.50
2022-09-06T00:33:38.585Z,1.90
2022-09-06T00:36:06.418Z,2.53
2022-09-06T00:38:33.966Z,2.30
2022-09-06T00:41:01.476Z,2.20
2022-09-06T00:43:29.378Z,2.77
2022-09-06T00:45:57.261Z,2.50
2022-09-06T00:48:25.428Z,2.53
2022-09-06T00:50:56.276Z,2.33
2022-09-06T00:53:24.501Z,2.53
2022-09-06T00:55:52.110Z,2.00
2022-09-06T00:58:19.732Z,2.30
2022-09-06T01:00:47.350Z,2.10
2022-09-06T01:03:15.195Z,2.10
2022-09-06T01:05:54.330Z,1.93
2022-09-06T01:08:31.656Z,2.40
2022-09-06T01:11:09.881Z,1.97
2022-09-06T01:13:44.388Z,2.00
2022-09-06T01:16:19.179Z,1.93
2022-09-06T01:19:15.826Z,1.53
2022-09-06T01:21:48.734Z,1.63
2022-09-06T01:24:43.529Z,1.47
2022-09-06T01:27:35.534Z,1.90
2022-09-06T01:30:07.159Z,2.17
2022-09-06T01:32:41.605Z,1.80
2022-09-06T01:35:16.455Z,1.93
2022-09-06T01:37:44.128Z,1.97
2022-09-06T01:40:11.797Z,1.80
2022-09-06T01:42:40.393Z,2.00
2022-09-06T01:45:12.313Z,1.80
2022-09-06T01:47:47.046Z,2.00
2022-09-06T01:50:40.415Z,2.20
2022-09-06T01:53:17.934Z,1.50
2022-09-06T01:55:49.750Z,1.80
2022-09-06T01:58:45.338Z,2.00
2022-09-06T02:01:21.222Z,1.90
2022-09-06T02:03:53.543Z,1.93
2022-09-06T02:06:23.540Z,2.20
2022-09-06T02:08:54.421Z,1.80
2022-09-06T02:11:23.212Z,2.30
2022-09-06T02:13:53.332Z,1.57
2022-09-06T02:16:24.581Z,1.70
2022-09-06T02:18:53.804Z,2.03
2022-09-06T02:21:24.642Z,1.60
2022-09-06T02:23:53.310Z,1.87
2022-09-06T02:26:23.134Z,1.67
2022-09-06T02:28:50.868Z,1.70
2022-09-06T02:31:22.817Z,1.47
2022-09-06T02:33:51.933Z,1.33
2022-09-06T02:36:20.069Z,1.40
2022-09-06T02:38:48.063Z,1.67
2022-09-06T02:41:16.683Z,1.57
2022-09-06T02:43:44.325Z,1.73
2022-09-06T02:46:12.543Z,1.20
2022-09-06T02:48:42.071Z,1.23
2022-09-06T02:51:10.347Z,1.07
2022-09-06T02:53:38.300Z,1.57
2022-09-06T02:56:06.375Z,1.10
2022-09-06T02:58:34.137Z,1.53
2022-09-06T03:01:02.136Z,1.30
2022-09-06T03:03:29.841Z,1.13
2022-09-06T03:05:59.298Z,1.20
2022-09-06T03:08:29.413Z,1.30
2022-09-06T03:10:57.596Z,1.70
2022-09-06T03:13:25.470Z,1.20
2022-09-06T03:15:53.851Z,1.20
2022-09-06T03:18:21.664Z,1.23
2022-09-06T03:20:50.003Z,1.13
2022-09-06T03:23:19.039Z,1.50
2022-09-06T03:25:46.634Z,1.20
2022-09-06T03:28:14.646Z,1.43
2022-09-06T03:30:45.660Z,1.57
2022-09-06T03:33:13.302Z,1.27
2022-09-06T03:35:41.867Z,1.33
2022-09-06T03:38:09.485Z,1.10
2022-09-06T03:40:38.454Z,1.30
2022-09-06T03:43:06.132Z,1.33
2022-09-06T03:45:33.682Z,1.23
2022-09-06T03:48:01.254Z,1.40
2022-09-06T03:50:28.745Z,1.30
2022-09-06T03:52:56.218Z,1.30
2022-09-06T03:55:23.690Z,1.10
2022-09-06T03:57:52.540Z,1.30
2022-09-06T04:00:20.267Z,1.30
2022-09-06T04:02:47.813Z,1.70
2022-09-06T04:05:16.507Z,1.50
2022-09-06T04:07:44.229Z,1.30
2022-09-06T04:10:11.861Z,1.40
2022-09-06T04:12:39.365Z,0.97
2022-09-06T04:15:09.530Z,1.50
2022-09-06T04:17:37.066Z,1.10
2022-09-06T04:20:05.323Z,1.30
2022-09-06T04:22:32.810Z,1.37
2022-09-06T04:25:01.344Z,1.40
2022-09-06T04:27:28.829Z,1.50
2022-09-06T04:29:56.526Z,1.50
2022-09-06T04:32:25.477Z,1.50
2022-09-06T04:34:53.197Z,1.60
2022-09-06T04:37:20.705Z,1.17
2022-09-06T04:39:48.457Z,1.57
2022-09-06T04:42:16.548Z,1.57
2022-09-06T04:44:44.028Z,1.50
2022-09-06T04:47:14.743Z,1.80
2022-09-06T04:49:43.820Z,1.47
2022-09-06T04:52:11.606Z,1.50
2022-09-06T04:54:39.240Z,1.50
2022-09-06T04:57:07.027Z,1.97
2022-09-06T04:59:34.555Z,2.30
2022-09-06T05:02:02.138Z,2.37
2022-09-06T05:04:29.657Z,1.87
2022-09-06T05:07:02.990Z,2.20
2022-09-06T05:09:30.474Z,1.90
2022-09-06T05:11:57.984Z,2.03
2022-09-06T05:14:25.519Z,1.80
2022-09-06T05:16:54.291Z,2.23
2022-09-06T05:19:21.995Z,1.53
2022-09-06T05:21:49.558Z,2.00
2022-09-06T05:24:18.455Z,1.60
2022-09-06T05:26:45.941Z,2.13
2022-09-06T05:29:13.412Z,2.57
2022-09-06T05:31:40.965Z,2.77
2022-09-06T05:34:08.511Z,1.70
2022-09-06T05:36:36.047Z,2.10
2022-09-06T05:39:03.714Z,2.40
2022-09-06T05:41:33.701Z,1.83
2022-09-06T05:44:01.184Z,2.33
2022-09-06T05:46:28.658Z,2.27
2022-09-06T05:48:58.004Z,1.80
2022-09-06T05:51:25.613Z,1.90
2022-09-06T05:53:53.118Z,1.73
2022-09-06T05:56:20.617Z,1.60
2022-09-06T05:58:49.459Z,2.27
2022-09-06T06:01:21.435Z,2.07
2022-09-06T06:03:52.697Z,2.60
2022-09-06T06:06:20.598Z,1.97
2022-09-06T06:08:48.297Z,2.37
2022-09-06T06:11:15.910Z,2.00
2022-09-06T06:13:43.813Z,1.97
2022-09-06T06:16:14.271Z,2.00
2022-09-06T06:18:41.989Z,1.67
2022-09-06T06:21:10.996Z,1.83
2022-09-06T06:23:38.894Z,1.90
2022-09-06T06:26:07.238Z,1.70
2022-09-06T06:28:35.913Z,1.63
2022-09-06T06:31:03.515Z,2.00
2022-09-06T06:33:32.538Z,1.97
2022-09-06T06:36:01.208Z,1.80
2022-09-06T06:38:32.731Z,1.63
2022-09-06T06:41:04.524Z,2.00
2022-09-06T06:43:37.480Z,1.87
2022-09-06T06:46:05.154Z,1.90
2022-09-06T06:48:34.023Z,1.77
2022-09-06T06:51:01.520Z,1.90
2022-09-06T06:53:29.009Z,1.70
2022-09-06T06:55:56.510Z,1.60
2022-09-06T06:58:24.029Z,1.77
2022-09-06T07:00:51.626Z,1.83
2022-09-06T07:03:19.489Z,1.90
2022-09-06T07:08:37.060Z,1.73
2022-09-06T07:11:05.004Z,2.10
2022-09-06T07:13:33.860Z,1.80
2022-09-06T07:16:09.163Z,1.90
2022-09-06T07:18:37.664Z,1.43
2022-09-06T07:24:10.740Z,1.70
2022-09-06T07:26:40.172Z,1.77
2022-09-06T07:29:08.678Z,1.80
2022-09-06T07:34:26.153Z,1.77
2022-09-06T07:36:54.987Z,1.83
2022-09-06T07:39:22.859Z,2.10
2022-09-06T07:41:50.351Z,1.80
2022-09-06T07:44:17.850Z,1.60
2022-09-06T07:46:45.432Z,1.50
2022-09-06T07:49:13.289Z,1.90
2022-09-06T07:51:40.768Z,1.87
2022-09-06T07:56:57.119Z,1.40
2022-09-06T07:59:24.740Z,1.60
2022-09-06T08:01:53.248Z,1.57
2022-09-06T08:04:20.791Z,1.67
2022-09-06T08:09:41.073Z,2.43
2022-09-06T08:12:09.365Z,1.60
2022-09-06T08:14:36.991Z,2.03
2022-09-06T08:17:04.693Z,1.37
2022-09-06T08:19:32.240Z,1.40
2022-09-06T08:21:59.842Z,1.60
2022-09-06T08:24:28.289Z,1.53
2022-09-06T08:26:57.205Z,1.63
2022-09-06T08:29:25.911Z,1.50
2022-09-06T08:31:53.461Z,1.60
2022-09-06T08:34:20.997Z,1.10
2022-09-06T08:36:48.492Z,1.50
2022-09-06T08:39:16.739Z,1.13
2022-09-06T08:41:50.034Z,1.40
2022-09-06T08:47:10.213Z,1.40
2022-09-06T08:49:39.808Z,1.43
2022-09-06T08:52:19.228Z,1.20
2022-09-06T08:54:50.024Z,1.57
2022-09-06T08:57:27.523Z,1.47
2022-09-06T09:00:01.108Z,1.40
2022-09-06T09:02:29.502Z,1.13
2022-09-06T09:05:01.718Z,1.40
2022-09-06T09:07:38.772Z,1.23
2022-09-06T09:10:09.813Z,1.33
2022-09-06T09:12:43.679Z,1.40
2022-09-06T09:15:15.719Z,1.63
2022-09-06T09:17:43.558Z,1.97
2022-09-06T09:20:11.562Z,1.30
2022-09-06T09:22:40.135Z,1.50
2022-09-06T09:25:09.208Z,1.30
2022-09-06T09:27:37.301Z,1.93
2022-09-06T09:32:56.153Z,1.20
2022-09-06T09:35:33.006Z,1.40
2022-09-06T09:38:08.061Z,2.00
2022-09-06T09:40:41.800Z,2.10
2022-09-06T09:43:12.656Z,1.77
2022-09-06T09:45:40.133Z,1.47
2022-09-06T09:48:26.942Z,2.03
2022-09-06T09:50:55.286Z,2.00
2022-09-06T09:53:24.816Z,1.27
2022-09-06T09:55:57.359Z,1.73
2022-09-06T09:58:33.936Z,2.30
2022-09-06T10:01:18.762Z,1.50
2022-09-06T10:09:33.318Z,1.93
2022-09-06T10:12:01.596Z,1.50
2022-09-06T10:14:31.408Z,1.70
2022-09-06T10:17:00.400Z,1.90
2022-09-06T10:19:39.794Z,1.77
2022-09-06T10:22:15.146Z,1.60
2022-09-06T10:24:56.220Z,1.77
2022-09-06T10:27:26.975Z,1.77
2022-09-06T10:29:58.316Z,1.73
2022-09-06T10:32:35.483Z,1.40
2022-09-06T10:35:28.275Z,1.50
2022-09-06T10:38:14.238Z,2.03
2022-09-06T10:40:48.093Z,1.50
2022-09-06T10:43:19.770Z,1.50
2022-09-06T10:45:55.623Z,1.53
2022-09-06T10:48:28.108Z,1.37
2022-09-06T10:50:59.505Z,1.37
2022-09-06T10:53:41.840Z,1.60
2022-09-06T10:56:12.391Z,1.53
2022-09-06T11:01:37.680Z,1.60
2022-09-06T11:04:12.734Z,2.00
2022-09-06T11:06:46.196Z,1.60
2022-09-06T11:09:17.927Z,1.53
2022-09-06T11:11:47.052Z,1.93
2022-09-06T11:14:15.405Z,1.67
2022-09-06T11:16:47.277Z,1.23
2022-09-06T11:19:19.078Z,1.77
2022-09-06T11:22:21.781Z,2.00
2022-09-06T11:25:09.255Z,1.43
2022-09-06T11:27:38.822Z,1.37
2022-09-06T11:30:07.434Z,1.33
2022-09-06T11:32:38.671Z,1.53
2022-09-06T11:35:10.020Z,1.57
2022-09-06T11:37:39.583Z,1.60
2022-09-06T11:40:31.332Z,1.20
2022-09-06T11:43:17.539Z,1.00
2022-09-06T11:45:50.132Z,1.30
2022-09-06T11:48:50.481Z,1.80
2022-09-06T11:51:36.246Z,1.47
2022-09-06T11:54:18.432Z,1.37
2022-09-06T11:56:54.517Z,1.73
2022-09-06T11:59:31.360Z,1.40
2022-09-06T12:02:03.395Z,1.40
2022-09-06T12:05:10.053Z,1.30
2022-09-06T12:07:38.518Z,1.20
2022-09-06T12:10:42.901Z,1.60
2022-09-06T12:13:42.961Z,1.67
2022-09-06T12:16:12.140Z,1.60
2022-09-06T12:18:59.359Z,1.20
2022-09-06T12:21:39.297Z,1.70
2022-09-06T12:24:08.728Z,1.40
2022-09-06T12:26:51.866Z,1.63
2022-09-06T12:29:26.793Z,1.60
2022-09-06T12:31:55.645Z,1.43
2022-09-06T12:34:25.862Z,1.80
2022-09-06T12:36:58.751Z,1.53
2022-09-06T12:39:26.643Z,1.47
2022-09-06T12:41:56.896Z,1.63
2022-09-06T12:44:32.317Z,1.40
2022-09-06T12:47:04.633Z,1.50
2022-09-06T12:49:32.486Z,1.10
2022-09-06T12:52:11.830Z,1.30
2022-09-06T12:54:47.561Z,1.20
2022-09-06T12:57:19.273Z,1.53
2022-09-06T12:59:55.819Z,2.00
2022-09-06T13:02:28.974Z,1.60
2022-09-06T13:05:02.309Z,2.00
2022-09-06T13:07:31.599Z,1.50
2022-09-06T13:09:59.402Z,1.70
2022-09-06T13:12:29.586Z,1.63
2022-09-06T13:15:00.937Z,1.57
2022-09-06T13:17:30.383Z,1.23
2022-09-06T13:19:59.859Z,1.60
2022-09-06T13:22:45.475Z,1.10
2022-09-06T13:25:20.836Z,1.50
2022-09-06T13:27:50.678Z,1.17
2022-09-06T13:30:33.999Z,1.70
2022-09-06T13:33:01.900Z,1.30
2022-09-06T13:35:31.622Z,1.30
2022-09-06T13:38:21.921Z,1.10
2022-09-06T13:41:10.982Z,1.33
2022-09-06T13:43:44.905Z,1.67
2022-09-06T13:46:13.858Z,1.47
2022-09-06T13:48:42.871Z,1.37
2022-09-06T13:51:11.029Z,1.60
2022-09-06T13:53:38.526Z,1.27
2022-09-06T13:56:08.715Z,1.50
2022-09-06T13:58:36.731Z,1.67
2022-09-06T14:01:08.421Z,1.60
2022-09-06T14:03:39.115Z,1.10
2022-09-06T14:06:07.693Z,1.47
2022-09-06T14:09:02.923Z,1.50
2022-09-06T14:11:24.141Z,1.37
2022-09-06T14:13:51.601Z,1.30
2022-09-06T14:16:19.185Z,1.50
2022-09-06T14:18:48.065Z,1.53
2022-09-06T14:21:15.537Z,2.00
2022-09-06T14:23:43.013Z,1.70
2022-09-06T14:26:11.930Z,1.90
2022-09-06T14:28:39.438Z,1.50
2022-09-06T14:31:13.563Z,1.60
2022-09-06T14:33:41.084Z,1.40
2022-09-06T14:36:11.852Z,1.87
2022-09-06T14:38:40.029Z,1.60
2022-09-06T14:41:08.790Z,1.27
2022-09-06T14:43:36.812Z,1.40
2022-09-06T14:46:06.056Z,1.60
2022-09-06T14:48:33.930Z,1.50
2022-09-06T14:51:08.792Z,2.00
2022-09-06T14:53:41.123Z,1.70
2022-09-06T14:56:09.008Z,1.97
2022-09-06T14:58:38.629Z,1.37
2022-09-06T15:01:11.621Z,1.37
2022-09-06T15:03:40.601Z,1.47
2022-09-06T15:06:09.112Z,1.50
2022-09-06T15:08:37.705Z,1.77
2022-09-06T15:11:08.195Z,1.80
2022-09-06T15:13:36.900Z,1.20
2022-09-06T15:16:05.121Z,1.57
2022-09-06T15:18:33.112Z,1.40
2022-09-06T15:21:09.670Z,1.63
2022-09-06T15:23:37.435Z,2.10
2022-09-06T15:26:07.702Z,1.80
2022-09-06T15:28:35.728Z,1.37
2022-09-06T15:31:03.342Z,1.50
2022-09-06T15:33:30.930Z,1.90
2022-09-06T15:35:58.630Z,1.80
2022-09-06T15:38:26.156Z,1.80
2022-09-06T15:40:53.617Z,1.60
2022-09-06T15:43:22.531Z,1.77
2022-09-06T15:45:51.634Z,1.50
2022-09-06T15:48:19.428Z,1.50
2022-09-06T15:50:51.647Z,1.57
2022-09-06T15:53:19.561Z,1.80
2022-09-06T15:56:00.543Z,1.83
2022-09-06T15:58:29.777Z,1.30
2022-09-06T16:01:02.002Z,1.67
2022-09-06T16:03:29.612Z,1.37
2022-09-06T16:08:53.308Z,1.67
2022-09-06T16:11:20.913Z,1.60
2022-09-06T16:13:50.105Z,1.43
2022-09-06T16:16:18.258Z,1.90
2022-09-06T16:18:47.783Z,1.80
2022-09-06T16:21:17.868Z,1.13
2022-09-06T16:23:49.979Z,1.40
2022-09-06T16:26:21.370Z,1.17
2022-09-06T16:28:51.429Z,1.20
2022-09-06T16:31:20.603Z,1.43
2022-09-06T16:33:48.839Z,1.43
2022-09-06T16:36:17.555Z,1.33
2022-09-06T16:38:45.762Z,1.67
2022-09-06T16:41:15.550Z,1.50
2022-09-06T16:43:43.631Z,1.50
2022-09-06T16:46:13.368Z,2.17
2022-09-06T16:48:41.513Z,2.20
2022-09-06T16:51:11.071Z,2.10
2022-09-06T16:53:40.409Z,2.30
2022-09-06T16:56:08.898Z,2.37
2022-09-06T16:58:36.746Z,2.20
2022-09-06T17:01:05.656Z,2.50
2022-09-06T17:03:45.417Z,2.23
2022-09-06T17:06:13.195Z,2.37
2022-09-06T17:08:40.851Z,2.50
2022-09-06T17:11:10.225Z,2.00
2022-09-06T17:13:38.663Z,2.37
2022-09-06T17:16:24.458Z,2.33
2022-09-06T17:18:54.362Z,2.40
2022-09-06T17:21:22.595Z,2.43
2022-09-06T17:23:50.761Z,2.13
2022-09-06T17:26:19.572Z,3.00
2022-09-06T17:28:47.245Z,2.57
2022-09-06T17:31:15.070Z,2.23
2022-09-06T17:33:47.304Z,2.57
2022-09-06T17:36:18.168Z,2.10
2022-09-06T17:38:52.719Z,2.33
2022-09-06T17:41:23.104Z,2.60
2022-09-06T17:43:50.814Z,2.50
2022-09-06T17:46:28.477Z,1.87
2022-09-06T17:48:56.416Z,1.20
2022-09-06T17:51:26.495Z,1.43
2022-09-06T17:53:54.561Z,1.53
2022-09-06T17:56:22.631Z,2.30
2022-09-06T17:58:55.050Z,1.60
2022-09-06T18:01:24.214Z,2.33
2022-09-06T18:03:52.646Z,1.67
2022-09-06T18:06:25.700Z,1.97
2022-09-06T18:08:56.902Z,2.43
2022-09-06T18:11:26.532Z,2.70
2022-09-06T18:13:56.926Z,2.87
2022-09-06T18:16:36.711Z,1.90
2022-09-06T18:19:06.350Z,1.47
2022-09-06T18:21:38.838Z,1.60
2022-09-06T18:24:14.034Z,1.63
2022-09-06T18:26:43.075Z,2.13
2022-09-06T18:29:16.957Z,1.80
2022-09-06T18:31:47.327Z,2.23
2022-09-06T18:34:45.125Z,1.80
2022-09-06T18:37:18.470Z,1.83
2022-09-06T18:40:44.370Z,1.70
2022-09-06T18:43:29.862Z,2.47
2022-09-06T18:46:04.317Z,2.50
2022-09-06T18:48:36.906Z,2.53
2022-09-06T18:51:30.617Z,2.33
2022-09-06T18:53:59.561Z,2.27
2022-09-06T18:56:29.170Z,2.17
2022-09-06T18:59:06.580Z,2.23
2022-09-06T19:01:37.015Z,2.47
2022-09-06T19:04:06.627Z,2.90
2022-09-06T19:06:36.074Z,3.30
2022-09-06T19:09:06.852Z,2.80
2022-09-06T19:11:53.154Z,2.53
2022-09-06T19:14:21.912Z,3.03
2022-09-06T19:16:57.584Z,3.00
2022-09-06T19:19:28.726Z,2.40
2022-09-06T19:22:05.616Z,1.90
2022-09-06T19:24:35.890Z,2.40
2022-09-06T19:27:05.773Z,2.90
2022-09-06T19:29:33.726Z,2.70
2022-09-06T19:32:01.852Z,5.10
2022-09-06T19:34:32.584Z,2.17
2022-09-06T19:37:00.334Z,3.60
2022-09-06T19:39:34.869Z,2.87
2022-09-06T19:42:14.381Z,2.33
2022-09-06T19:44:42.325Z,2.10
2022-09-06T19:47:12.496Z,2.30
2022-09-06T19:49:42.971Z,2.37
2022-09-06T19:52:26.300Z,1.83
2022-09-06T19:54:54.016Z,2.13
2022-09-06T19:57:23.200Z,2.53
2022-09-06T19:59:50.796Z,2.40
2022-09-06T20:02:21.293Z,2.00
2022-09-06T20:04:49.126Z,2.30
2022-09-06T20:07:16.934Z,2.73
2022-09-06T20:09:47.520Z,2.70
2022-09-06T20:12:17.235Z,2.43
2022-09-06T20:14:46.394Z,3.10
2022-09-06T20:17:32.931Z,2.50
2022-09-06T20:20:01.853Z,3.20
2022-09-06T20:22:29.465Z,3.23
2022-09-06T20:24:57.319Z,2.83
2022-09-06T20:27:27.477Z,2.80
2022-09-06T20:29:56.474Z,2.90
2022-09-06T20:32:24.073Z,2.90
2022-09-06T20:34:53.193Z,3.03
2022-09-06T20:37:21.774Z,2.90
2022-09-06T20:39:49.482Z,3.60
2022-09-06T20:42:17.279Z,2.50
2022-09-06T20:44:45.625Z,3.33
2022-09-06T20:47:14.678Z,2.70
2022-09-06T20:49:42.609Z,2.77
2022-09-06T20:52:10.307Z,2.70
2022-09-06T20:54:38.606Z,2.60
2022-09-06T20:57:06.558Z,2.53
2022-09-06T20:59:34.630Z,3.27
2022-09-06T21:02:02.703Z,2.47
2022-09-06T21:04:43.689Z,2.30
2022-09-06T21:07:11.463Z,2.47
2022-09-06T21:09:42.566Z,1.60
2022-09-06T21:12:10.157Z,2.63
2022-09-06T21:14:37.761Z,2.50
2022-09-06T21:17:05.467Z,2.13
2022-09-06T21:19:41.751Z,2.67
2022-09-06T21:22:11.388Z,3.27
2022-09-06T21:25:11.114Z,3.50
2022-09-06T21:28:03.281Z,3.43
2022-09-06T21:30:51.232Z,2.47
2022-09-06T21:33:31.093Z,2.83
2022-09-06T21:36:08.277Z,2.80
2022-09-06T21:38:39.051Z,2.20
2022-09-06T21:41:16.341Z,2.37
2022-09-06T21:43:49.288Z,2.43
2022-09-06T21:46:32.592Z,1.90
2022-09-06T21:49:17.163Z,1.77
2022-09-06T21:51:46.706Z,1.83
2022-09-06T21:54:17.128Z,1.77
2022-09-06T21:56:55.352Z,1.80
2022-09-06T21:59:29.164Z,2.13
2022-09-06T22:02:12.551Z,2.03
2022-09-06T22:04:57.640Z,2.20
2022-09-06T22:07:41.604Z,2.30
2022-09-06T22:10:18.007Z,2.07
2022-09-06T22:15:38.851Z,1.80
2022-09-06T22:18:54.773Z,1.80
2022-09-06T22:21:33.995Z,1.87
2022-09-06T22:24:14.331Z,2.57
2022-09-06T22:26:42.631Z,2.10
2022-09-06T22:29:12.138Z,2.10
2022-09-06T22:31:40.642Z,2.33
2022-09-06T22:34:08.727Z,2.70
2022-09-06T22:36:38.233Z,2.57
2022-09-06T22:39:06.263Z,2.00
2022-09-06T22:41:34.889Z,2.43
2022-09-06T22:44:03.123Z,2.30
2022-09-06T22:46:30.861Z,1.80
2022-09-06T22:48:58.584Z,2.60
2022-09-06T22:51:27.216Z,2.50
2022-09-06T22:53:56.160Z,2.30
2022-09-06T22:56:25.149Z,2.70
2022-09-06T22:58:52.711Z,2.60
2022-09-06T23:01:20.439Z,2.63
2022-09-06T23:03:48.086Z,2.00
2022-09-06T23:06:15.889Z,2.70
2022-09-06T23:08:43.974Z,4.23
2022-09-06T23:11:15.759Z,2.90
2022-09-06T23:13:44.164Z,2.43
2022-09-06T23:16:14.188Z,2.20
2022-09-06T23:18:41.845Z,2.50
2022-09-06T23:21:10.923Z,2.40
2022-09-06T23:23:39.199Z,2.80
2022-09-06T23:26:08.181Z,3.47
2022-09-06T23:28:37.582Z,2.37
2022-09-06T23:31:05.884Z,2.77
2022-09-06T23:33:35.040Z,2.57
2022-09-06T23:36:02.821Z,2.60
2022-09-06T23:38:30.490Z,2.57
2022-09-06T23:40:58.329Z,2.20
2022-09-06T23:43:25.879Z,2.10
2022-09-06T23:45:54.924Z,2.13
2022-09-06T23:48:22.698Z,1.90
2022-09-06T23:50:50.408Z,2.13
2022-09-06T23:53:19.035Z,2.20
2022-09-06T23:55:46.862Z,2.30
2022-09-06T23:58:14.393Z,2.10
